sensor_id;sensor_type;location;lat;lon;timestamp;temperature;humidity
53926;DHT22;39836;52.754;6.866;2023-04-07T00:01:45;7.00;82.80
53926;DHT22;39836;52.754;6.866;2023-04-07T00:04:10;7.00;83.00
53926;DHT22;39836;52.754;6.866;2023-04-07T00:06:36;7.00;83.00
53926;DHT22;39836;52.754;6.866;2023-04-07T00:09:02;7.00;83.20
53926;DHT22;39836;52.754;6.866;2023-04-07T00:11:27;7.00;83.00
53926;DHT22;39836;52.754;6.866;2023-04-07T00:13:53;7.00;83.20
53926;DHT22;39836;52.754;6.866;2023-04-07T00:16:19;7.00;83.10
53926;DHT22;39836;52.754;6.866;2023-04-07T00:18:45;7.00;83.20
53926;DHT22;39836;52.754;6.866;2023-04-07T00:21:10;7.00;83.30
53926;DHT22;39836;52.754;6.866;2023-04-07T00:23:36;6.90;83.30
53926;DHT22;39836;52.754;6.866;2023-04-07T00:26:01;7.00;83.40
53926;DHT22;39836;52.754;6.866;2023-04-07T00:28:27;6.90;83.30
53926;DHT22;39836;52.754;6.866;2023-04-07T00:30:53;6.90;83.40
53926;DHT22;39836;52.754;6.866;2023-04-07T00:33:18;6.90;83.50
53926;DHT22;39836;52.754;6.866;2023-04-07T00:35:44;6.90;83.40
53926;DHT22;39836;52.754;6.866;2023-04-07T00:38:10;6.90;83.50
53926;DHT22;39836;52.754;6.866;2023-04-07T00:40:36;6.80;83.70
53926;DHT22;39836;52.754;6.866;2023-04-07T00:43:01;6.90;83.80
53926;DHT22;39836;52.754;6.866;2023-04-07T00:45:27;6.80;83.80
53926;DHT22;39836;52.754;6.866;2023-04-07T00:47:53;6.80;84.00
53926;DHT22;39836;52.754;6.866;2023-04-07T00:50:19;6.90;84.00
53926;DHT22;39836;52.754;6.866;2023-04-07T00:52:45;6.90;84.10
53926;DHT22;39836;52.754;6.866;2023-04-07T00:55:10;6.80;84.20
53926;DHT22;39836;52.754;6.866;2023-04-07T00:57:36;6.80;84.10
53926;DHT22;39836;52.754;6.866;2023-04-07T01:00:02;6.90;84.10
53926;DHT22;39836;52.754;6.866;2023-04-07T01:02:40;6.80;84.00
53926;DHT22;39836;52.754;6.866;2023-04-07T01:05:41;6.80;84.30
53926;DHT22;39836;52.754;6.866;2023-04-07T01:08:21;6.80;84.30
53926;DHT22;39836;52.754;6.866;2023-04-07T01:11:05;6.90;84.30
53926;DHT22;39836;52.754;6.866;2023-04-07T01:13:50;6.90;84.40
53926;DHT22;39836;52.754;6.866;2023-04-07T01:16:44;6.80;84.30
53926;DHT22;39836;52.754;6.866;2023-04-07T01:21:39;6.80;84.40
53926;DHT22;39836;52.754;6.866;2023-04-07T01:26:51;6.80;84.40
53926;DHT22;39836;52.754;6.866;2023-04-07T01:29:35;6.80;84.50
53926;DHT22;39836;52.754;6.866;2023-04-07T01:32:03;6.80;84.40
53926;DHT22;39836;52.754;6.866;2023-04-07T01:34:31;6.80;84.50
53926;DHT22;39836;52.754;6.866;2023-04-07T01:36:59;6.80;84.60
53926;DHT22;39836;52.754;6.866;2023-04-07T01:39:27;6.80;84.50
53926;DHT22;39836;52.754;6.866;2023-04-07T01:41:54;6.80;84.50
53926;DHT22;39836;52.754;6.866;2023-04-07T01:44:21;6.80;84.50
53926;DHT22;39836;52.754;6.866;2023-04-07T01:46:47;6.80;84.50
53926;DHT22;39836;52.754;6.866;2023-04-07T01:49:15;6.80;84.50
53926;DHT22;39836;52.754;6.866;2023-04-07T01:51:42;6.80;84.50
53926;DHT22;39836;52.754;6.866;2023-04-07T01:54:09;6.80;84.50
53926;DHT22;39836;52.754;6.866;2023-04-07T01:56:35;6.70;84.50
53926;DHT22;39836;52.754;6.866;2023-04-07T01:59:00;6.80;84.60
53926;DHT22;39836;52.754;6.866;2023-04-07T02:01:26;6.80;84.60
53926;DHT22;39836;52.754;6.866;2023-04-07T02:04:07;6.80;84.60
53926;DHT22;39836;52.754;6.866;2023-04-07T02:06:40;6.80;84.60
53926;DHT22;39836;52.754;6.866;2023-04-07T02:09:10;6.80;84.60
53926;DHT22;39836;52.754;6.866;2023-04-07T02:11:37;6.70;84.50
53926;DHT22;39836;52.754;6.866;2023-04-07T02:14:05;6.80;84.60
53926;DHT22;39836;52.754;6.866;2023-04-07T02:16:33;6.80;84.60
53926;DHT22;39836;52.754;6.866;2023-04-07T02:19:00;6.80;84.60
53926;DHT22;39836;52.754;6.866;2023-04-07T02:21:28;6.80;84.60
53926;DHT22;39836;52.754;6.866;2023-04-07T02:23:55;6.80;84.60
53926;DHT22;39836;52.754;6.866;2023-04-07T02:26:21;6.80;84.60
53926;DHT22;39836;52.754;6.866;2023-04-07T02:28:46;6.80;84.60
53926;DHT22;39836;52.754;6.866;2023-04-07T02:31:12;6.80;84.60
53926;DHT22;39836;52.754;6.866;2023-04-07T02:33:38;6.80;84.60
53926;DHT22;39836;52.754;6.866;2023-04-07T02:36:04;6.80;84.60
53926;DHT22;39836;52.754;6.866;2023-04-07T02:38:31;6.80;84.60
53926;DHT22;39836;52.754;6.866;2023-04-07T02:40:56;6.80;84.60
53926;DHT22;39836;52.754;6.866;2023-04-07T02:43:23;6.70;84.60
53926;DHT22;39836;52.754;6.866;2023-04-07T02:45:50;6.80;84.60
53926;DHT22;39836;52.754;6.866;2023-04-07T02:48:15;6.80;84.60
53926;DHT22;39836;52.754;6.866;2023-04-07T02:50:41;6.80;84.60
53926;DHT22;39836;52.754;6.866;2023-04-07T02:53:07;6.80;84.60
53926;DHT22;39836;52.754;6.866;2023-04-07T02:55:33;6.80;84.60
53926;DHT22;39836;52.754;6.866;2023-04-07T02:57:58;6.70;84.60
53926;DHT22;39836;52.754;6.866;2023-04-07T03:00:24;6.70;84.60
53926;DHT22;39836;52.754;6.866;2023-04-07T03:02:50;6.80;84.60
53926;DHT22;39836;52.754;6.866;2023-04-07T03:05:16;6.80;84.60
53926;DHT22;39836;52.754;6.866;2023-04-07T03:07:42;6.70;84.60
53926;DHT22;39836;52.754;6.866;2023-04-07T03:10:08;6.70;84.60
53926;DHT22;39836;52.754;6.866;2023-04-07T03:12:34;6.70;84.60
53926;DHT22;39836;52.754;6.866;2023-04-07T03:14:59;6.70;84.60
53926;DHT22;39836;52.754;6.866;2023-04-07T03:17:25;6.70;84.60
53926;DHT22;39836;52.754;6.866;2023-04-07T03:19:51;6.80;84.60
53926;DHT22;39836;52.754;6.866;2023-04-07T03:22:16;6.80;84.60
53926;DHT22;39836;52.754;6.866;2023-04-07T03:24:42;6.70;84.60
53926;DHT22;39836;52.754;6.866;2023-04-07T03:27:08;6.70;84.60
53926;DHT22;39836;52.754;6.866;2023-04-07T03:29:33;6.80;84.60
53926;DHT22;39836;52.754;6.866;2023-04-07T03:31:59;6.70;84.60
53926;DHT22;39836;52.754;6.866;2023-04-07T03:34:25;6.70;84.60
53926;DHT22;39836;52.754;6.866;2023-04-07T03:36:51;6.80;84.60
53926;DHT22;39836;52.754;6.866;2023-04-07T03:39:16;6.80;84.60
53926;DHT22;39836;52.754;6.866;2023-04-07T03:41:42;6.70;84.60
53926;DHT22;39836;52.754;6.866;2023-04-07T03:44:08;6.70;84.60
53926;DHT22;39836;52.754;6.866;2023-04-07T03:46:33;6.70;84.60
53926;DHT22;39836;52.754;6.866;2023-04-07T03:48:59;6.70;84.60
53926;DHT22;39836;52.754;6.866;2023-04-07T03:51:25;6.70;84.60
53926;DHT22;39836;52.754;6.866;2023-04-07T03:53:52;6.70;84.60
53926;DHT22;39836;52.754;6.866;2023-04-07T03:56:18;6.60;84.60
53926;DHT22;39836;52.754;6.866;2023-04-07T03:58:44;6.70;84.60
53926;DHT22;39836;52.754;6.866;2023-04-07T04:01:11;6.70;84.60
53926;DHT22;39836;52.754;6.866;2023-04-07T04:03:36;6.70;84.60
53926;DHT22;39836;52.754;6.866;2023-04-07T04:06:02;6.80;84.60
53926;DHT22;39836;52.754;6.866;2023-04-07T04:08:29;6.70;84.60
53926;DHT22;39836;52.754;6.866;2023-04-07T04:10:55;6.70;84.60
53926;DHT22;39836;52.754;6.866;2023-04-07T04:13:21;6.70;84.60
53926;DHT22;39836;52.754;6.866;2023-04-07T04:15:47;6.60;84.60
53926;DHT22;39836;52.754;6.866;2023-04-07T04:18:13;6.80;84.60
53926;DHT22;39836;52.754;6.866;2023-04-07T04:20:38;6.70;84.60
53926;DHT22;39836;52.754;6.866;2023-04-07T04:23:04;6.70;84.60
53926;DHT22;39836;52.754;6.866;2023-04-07T04:25:30;6.70;84.60
53926;DHT22;39836;52.754;6.866;2023-04-07T04:27:55;6.70;84.60
53926;DHT22;39836;52.754;6.866;2023-04-07T04:30:21;6.70;84.60
53926;DHT22;39836;52.754;6.866;2023-04-07T04:32:47;6.70;84.60
53926;DHT22;39836;52.754;6.866;2023-04-07T04:35:13;6.70;84.60
53926;DHT22;39836;52.754;6.866;2023-04-07T04:37:40;6.70;84.60
53926;DHT22;39836;52.754;6.866;2023-04-07T04:40:06;6.70;84.60
53926;DHT22;39836;52.754;6.866;2023-04-07T04:42:33;6.70;84.60
53926;DHT22;39836;52.754;6.866;2023-04-07T04:44:59;6.70;84.60
53926;DHT22;39836;52.754;6.866;2023-04-07T04:47:25;6.70;84.60
53926;DHT22;39836;52.754;6.866;2023-04-07T04:49:50;6.70;84.60
53926;DHT22;39836;52.754;6.866;2023-04-07T04:52:16;6.70;84.60
53926;DHT22;39836;52.754;6.866;2023-04-07T04:54:42;6.60;84.50
53926;DHT22;39836;52.754;6.866;2023-04-07T04:57:07;6.70;84.50
53926;DHT22;39836;52.754;6.866;2023-04-07T04:59:33;6.70;84.50
53926;DHT22;39836;52.754;6.866;2023-04-07T05:01:59;6.70;84.50
53926;DHT22;39836;52.754;6.866;2023-04-07T05:04:24;6.60;84.50
53926;DHT22;39836;52.754;6.866;2023-04-07T05:06:50;6.60;84.50
53926;DHT22;39836;52.754;6.866;2023-04-07T05:09:16;6.70;84.50
53926;DHT22;39836;52.754;6.866;2023-04-07T05:11:42;6.60;84.40
53926;DHT22;39836;52.754;6.866;2023-04-07T05:14:08;6.70;84.40
53926;DHT22;39836;52.754;6.866;2023-04-07T05:16:34;6.60;84.40
53926;DHT22;39836;52.754;6.866;2023-04-07T05:19:00;6.70;84.40
53926;DHT22;39836;52.754;6.866;2023-04-07T05:21:26;6.70;84.40
53926;DHT22;39836;52.754;6.866;2023-04-07T05:23:52;6.70;84.40
53926;DHT22;39836;52.754;6.866;2023-04-07T05:26:18;6.70;84.40
53926;DHT22;39836;52.754;6.866;2023-04-07T05:28:43;6.60;84.40
53926;DHT22;39836;52.754;6.866;2023-04-07T05:31:09;6.70;84.40
53926;DHT22;39836;52.754;6.866;2023-04-07T05:33:35;6.70;84.40
53926;DHT22;39836;52.754;6.866;2023-04-07T05:36:01;6.70;84.40
53926;DHT22;39836;52.754;6.866;2023-04-07T05:38:26;6.70;84.40
53926;DHT22;39836;52.754;6.866;2023-04-07T05:40:52;6.70;84.40
53926;DHT22;39836;52.754;6.866;2023-04-07T05:43:18;6.70;84.40
53926;DHT22;39836;52.754;6.866;2023-04-07T05:45:43;6.70;84.40
53926;DHT22;39836;52.754;6.866;2023-04-07T05:48:09;6.70;84.40
53926;DHT22;39836;52.754;6.866;2023-04-07T05:50:35;6.70;84.30
53926;DHT22;39836;52.754;6.866;2023-04-07T05:53:01;6.80;84.40
53926;DHT22;39836;52.754;6.866;2023-04-07T05:55:27;6.70;84.30
53926;DHT22;39836;52.754;6.866;2023-04-07T05:57:52;6.80;84.30
53926;DHT22;39836;52.754;6.866;2023-04-07T06:00:19;6.80;84.30
53926;DHT22;39836;52.754;6.866;2023-04-07T06:02:45;6.80;84.30
53926;DHT22;39836;52.754;6.866;2023-04-07T06:05:11;6.80;84.30
53926;DHT22;39836;52.754;6.866;2023-04-07T06:07:36;6.80;84.30
53926;DHT22;39836;52.754;6.866;2023-04-07T06:10:02;6.80;84.30
53926;DHT22;39836;52.754;6.866;2023-04-07T06:12:28;6.80;84.20
53926;DHT22;39836;52.754;6.866;2023-04-07T06:14:54;6.80;84.20
53926;DHT22;39836;52.754;6.866;2023-04-07T06:17:20;6.80;84.20
53926;DHT22;39836;52.754;6.866;2023-04-07T06:19:46;6.80;84.20
53926;DHT22;39836;52.754;6.866;2023-04-07T06:22:12;6.90;84.20
53926;DHT22;39836;52.754;6.866;2023-04-07T06:24:38;6.90;84.10
53926;DHT22;39836;52.754;6.866;2023-04-07T06:27:03;6.90;84.10
53926;DHT22;39836;52.754;6.866;2023-04-07T06:29:31;6.90;84.10
53926;DHT22;39836;52.754;6.866;2023-04-07T06:31:57;6.90;84.00
53926;DHT22;39836;52.754;6.866;2023-04-07T06:34:23;6.80;83.90
53926;DHT22;39836;52.754;6.866;2023-04-07T06:36:48;6.90;84.00
53926;DHT22;39836;52.754;6.866;2023-04-07T06:39:14;6.90;84.00
53926;DHT22;39836;52.754;6.866;2023-04-07T06:41:40;6.90;84.10
53926;DHT22;39836;52.754;6.866;2023-04-07T06:44:09;7.00;84.10
53926;DHT22;39836;52.754;6.866;2023-04-07T06:46:38;6.90;83.90
53926;DHT22;39836;52.754;6.866;2023-04-07T06:49:04;7.00;84.10
53926;DHT22;39836;52.754;6.866;2023-04-07T06:51:30;7.00;84.00
53926;DHT22;39836;52.754;6.866;2023-04-07T06:53:56;7.00;84.00
53926;DHT22;39836;52.754;6.866;2023-04-07T06:56:22;7.00;84.00
53926;DHT22;39836;52.754;6.866;2023-04-07T06:58:48;7.00;84.00
53926;DHT22;39836;52.754;6.866;2023-04-07T07:01:15;7.00;83.90
53926;DHT22;39836;52.754;6.866;2023-04-07T07:03:41;7.10;84.00
53926;DHT22;39836;52.754;6.866;2023-04-07T07:06:06;7.10;84.00
53926;DHT22;39836;52.754;6.866;2023-04-07T07:08:32;7.10;84.00
53926;DHT22;39836;52.754;6.866;2023-04-07T07:10:58;7.20;84.00
53926;DHT22;39836;52.754;6.866;2023-04-07T07:13:25;7.20;84.00
53926;DHT22;39836;52.754;6.866;2023-04-07T07:15:51;7.30;84.10
53926;DHT22;39836;52.754;6.866;2023-04-07T07:18:17;7.30;83.90
53926;DHT22;39836;52.754;6.866;2023-04-07T07:20:43;7.40;84.00
53926;DHT22;39836;52.754;6.866;2023-04-07T07:23:09;7.50;84.00
53926;DHT22;39836;52.754;6.866;2023-04-07T07:25:35;7.40;83.70
53926;DHT22;39836;52.754;6.866;2023-04-07T07:28:01;7.50;83.90
53926;DHT22;39836;52.754;6.866;2023-04-07T07:30:27;7.50;83.50
53926;DHT22;39836;52.754;6.866;2023-04-07T07:32:53;7.60;83.80
53926;DHT22;39836;52.754;6.866;2023-04-07T07:35:20;7.60;83.90
53926;DHT22;39836;52.754;6.866;2023-04-07T07:37:46;7.70;84.00
53926;DHT22;39836;52.754;6.866;2023-04-07T07:40:11;7.80;83.80
53926;DHT22;39836;52.754;6.866;2023-04-07T07:42:37;7.80;83.60
53926;DHT22;39836;52.754;6.866;2023-04-07T07:45:04;7.80;83.60
53926;DHT22;39836;52.754;6.866;2023-04-07T07:47:30;7.90;83.80
53926;DHT22;39836;52.754;6.866;2023-04-07T07:49:56;8.00;83.80
53926;DHT22;39836;52.754;6.866;2023-04-07T07:52:21;7.90;83.40
53926;DHT22;39836;52.754;6.866;2023-04-07T07:54:48;7.80;82.90
53926;DHT22;39836;52.754;6.866;2023-04-07T07:57:14;7.90;83.40
53926;DHT22;39836;52.754;6.866;2023-04-07T07:59:40;8.00;83.50
53926;DHT22;39836;52.754;6.866;2023-04-07T08:02:06;8.10;83.40
53926;DHT22;39836;52.754;6.866;2023-04-07T08:04:32;8.00;83.10
53926;DHT22;39836;52.754;6.866;2023-04-07T08:06:58;8.10;83.20
53926;DHT22;39836;52.754;6.866;2023-04-07T08:09:23;8.10;83.10
53926;DHT22;39836;52.754;6.866;2023-04-07T08:11:49;8.10;83.10
53926;DHT22;39836;52.754;6.866;2023-04-07T08:14:15;8.10;83.10
53926;DHT22;39836;52.754;6.866;2023-04-07T08:16:42;8.10;82.90
53926;DHT22;39836;52.754;6.866;2023-04-07T08:19:08;8.00;82.70
53926;DHT22;39836;52.754;6.866;2023-04-07T08:21:34;8.00;83.10
53926;DHT22;39836;52.754;6.866;2023-04-07T08:23:59;8.00;82.90
53926;DHT22;39836;52.754;6.866;2023-04-07T08:26:25;8.00;82.80
53926;DHT22;39836;52.754;6.866;2023-04-07T08:28:52;8.00;82.60
53926;DHT22;39836;52.754;6.866;2023-04-07T08:31:18;8.00;82.70
53926;DHT22;39836;52.754;6.866;2023-04-07T08:33:44;7.90;82.40
53926;DHT22;39836;52.754;6.866;2023-04-07T08:36:11;7.90;82.90
53926;DHT22;39836;52.754;6.866;2023-04-07T08:38:37;7.90;83.00
53926;DHT22;39836;52.754;6.866;2023-04-07T08:41:07;8.00;83.00
53926;DHT22;39836;52.754;6.866;2023-04-07T08:43:38;8.10;83.00
53926;DHT22;39836;52.754;6.866;2023-04-07T08:46:05;8.10;82.70
53926;DHT22;39836;52.754;6.866;2023-04-07T08:48:33;8.10;82.80
53926;DHT22;39836;52.754;6.866;2023-04-07T08:51:04;8.20;82.70
53926;DHT22;39836;52.754;6.866;2023-04-07T08:53:37;8.30;82.80
53926;DHT22;39836;52.754;6.866;2023-04-07T08:56:05;8.40;82.70
53926;DHT22;39836;52.754;6.866;2023-04-07T08:58:32;8.40;82.50
53926;DHT22;39836;52.754;6.866;2023-04-07T09:00:58;8.50;82.70
53926;DHT22;39836;52.754;6.866;2023-04-07T09:03:25;8.50;82.50
53926;DHT22;39836;52.754;6.866;2023-04-07T09:05:51;8.50;82.50
53926;DHT22;39836;52.754;6.866;2023-04-07T09:08:17;8.50;82.40
53926;DHT22;39836;52.754;6.866;2023-04-07T09:10:43;8.50;82.40
53926;DHT22;39836;52.754;6.866;2023-04-07T09:13:08;8.60;82.50
53926;DHT22;39836;52.754;6.866;2023-04-07T09:15:34;8.70;82.40
53926;DHT22;39836;52.754;6.866;2023-04-07T09:18:00;8.70;82.20
53926;DHT22;39836;52.754;6.866;2023-04-07T09:20:26;8.70;82.30
53926;DHT22;39836;52.754;6.866;2023-04-07T09:22:52;8.60;81.20
53926;DHT22;39836;52.754;6.866;2023-04-07T09:25:19;8.70;81.80
53926;DHT22;39836;52.754;6.866;2023-04-07T09:28:03;8.80;81.60
53926;DHT22;39836;52.754;6.866;2023-04-07T09:30:31;8.80;81.70
53926;DHT22;39836;52.754;6.866;2023-04-07T09:32:59;9.00;81.80
53926;DHT22;39836;52.754;6.866;2023-04-07T09:35:25;9.10;81.40
53926;DHT22;39836;52.754;6.866;2023-04-07T09:38:06;9.20;81.80
53926;DHT22;39836;52.754;6.866;2023-04-07T09:40:33;9.20;80.90
53926;DHT22;39836;52.754;6.866;2023-04-07T09:43:00;9.20;81.10
53926;DHT22;39836;52.754;6.866;2023-04-07T09:45:30;9.30;81.00
53926;DHT22;39836;52.754;6.866;2023-04-07T09:48:33;9.40;81.30
53926;DHT22;39836;52.754;6.866;2023-04-07T09:51:10;9.50;81.30
53926;DHT22;39836;52.754;6.866;2023-04-07T09:53:44;9.50;80.80
53926;DHT22;39836;52.754;6.866;2023-04-07T09:56:20;9.60;80.70
53926;DHT22;39836;52.754;6.866;2023-04-07T09:58:49;9.60;80.20
53926;DHT22;39836;52.754;6.866;2023-04-07T10:01:20;9.70;80.50
53926;DHT22;39836;52.754;6.866;2023-04-07T10:03:46;9.70;79.90
53926;DHT22;39836;52.754;6.866;2023-04-07T10:06:12;9.80;79.70
53926;DHT22;39836;52.754;6.866;2023-04-07T10:08:40;9.90;79.60
53926;DHT22;39836;52.754;6.866;2023-04-07T10:11:08;10.00;78.80
53926;DHT22;39836;52.754;6.866;2023-04-07T10:13:36;10.00;79.30
53926;DHT22;39836;52.754;6.866;2023-04-07T10:16:05;10.10;79.50
53926;DHT22;39836;52.754;6.866;2023-04-07T10:18:33;10.30;80.00
53926;DHT22;39836;52.754;6.866;2023-04-07T10:21:00;10.40;80.20
53926;DHT22;39836;52.754;6.866;2023-04-07T10:23:42;10.20;79.70
53926;DHT22;39836;52.754;6.866;2023-04-07T10:26:18;10.00;79.70
53926;DHT22;39836;52.754;6.866;2023-04-07T10:28:49;9.80;79.90
53926;DHT22;39836;52.754;6.866;2023-04-07T10:31:31;9.60;79.90
53926;DHT22;39836;52.754;6.866;2023-04-07T10:33:58;9.50;80.10
53926;DHT22;39836;52.754;6.866;2023-04-07T10:36:33;9.30;80.20
53926;DHT22;39836;52.754;6.866;2023-04-07T10:43:03;9.10;80.70
53926;DHT22;39836;52.754;6.866;2023-04-07T10:46:35;9.20;80.60
53926;DHT22;39836;52.754;6.866;2023-04-07T10:50:21;9.20;80.20
53926;DHT22;39836;52.754;6.866;2023-04-07T10:53:18;9.30;80.50
53926;DHT22;39836;52.754;6.866;2023-04-07T11:44:53;9.40;79.40
53926;DHT22;39836;52.754;6.866;2023-04-07T11:47:56;9.40;78.90
53926;DHT22;39836;52.754;6.866;2023-04-07T11:54:14;9.40;78.80
53926;DHT22;39836;52.754;6.866;2023-04-07T11:56:54;9.50;78.50
53926;DHT22;39836;52.754;6.866;2023-04-07T11:59:24;9.60;79.00
53926;DHT22;39836;52.754;6.866;2023-04-07T12:01:51;9.60;78.70
53926;DHT22;39836;52.754;6.866;2023-04-07T12:04:17;9.70;78.50
53926;DHT22;39836;52.754;6.866;2023-04-07T12:06:45;9.70;78.80
53926;DHT22;39836;52.754;6.866;2023-04-07T12:09:36;9.70;78.20
53926;DHT22;39836;52.754;6.866;2023-04-07T12:12:04;9.80;78.50
53926;DHT22;39836;52.754;6.866;2023-04-07T12:14:34;9.80;78.60
53926;DHT22;39836;52.754;6.866;2023-04-07T12:17:00;9.90;79.10
53926;DHT22;39836;52.754;6.866;2023-04-07T12:19:29;9.90;78.60
53926;DHT22;39836;52.754;6.866;2023-04-07T12:22:03;9.90;78.60
53926;DHT22;39836;52.754;6.866;2023-04-07T12:24:35;9.90;78.40
53926;DHT22;39836;52.754;6.866;2023-04-07T12:27:06;10.00;78.70
53926;DHT22;39836;52.754;6.866;2023-04-07T12:29:47;10.20;78.50
53926;DHT22;39836;52.754;6.866;2023-04-07T12:32:36;10.40;78.70
53926;DHT22;39836;52.754;6.866;2023-04-07T12:40:15;10.70;77.20
53926;DHT22;39836;52.754;6.866;2023-04-07T13:02:32;11.60;76.70
53926;DHT22;39836;52.754;6.866;2023-04-07T19:15:51;8.30;78.50
53926;DHT22;39836;52.754;6.866;2023-04-07T19:18:26;8.30;78.50
53926;DHT22;39836;52.754;6.866;2023-04-07T19:28:42;8.50;78.90
53926;DHT22;39836;52.754;6.866;2023-04-07T19:31:56;8.60;78.90
53926;DHT22;39836;52.754;6.866;2023-04-07T19:35:34;8.50;78.90
53926;DHT22;39836;52.754;6.866;2023-04-07T19:38:23;8.70;79.00
53926;DHT22;39836;52.754;6.866;2023-04-07T19:40:48;8.80;79.00
53926;DHT22;39836;52.754;6.866;2023-04-07T19:43:15;8.80;79.00
53926;DHT22;39836;52.754;6.866;2023-04-07T19:45:42;8.80;79.00
53926;DHT22;39836;52.754;6.866;2023-04-07T19:48:08;9.10;79.10
53926;DHT22;39836;52.754;6.866;2023-04-07T19:50:34;8.70;79.00
53926;DHT22;39836;52.754;6.866;2023-04-07T19:53:08;8.60;78.90
53926;DHT22;39836;52.754;6.866;2023-04-07T19:55:34;8.60;78.90
53926;DHT22;39836;52.754;6.866;2023-04-07T19:58:01;8.50;78.80
53926;DHT22;39836;52.754;6.866;2023-04-07T20:00:27;8.40;78.80
53926;DHT22;39836;52.754;6.866;2023-04-07T20:02:55;8.40;78.70
53926;DHT22;39836;52.754;6.866;2023-04-07T20:05:21;8.30;78.60
53926;DHT22;39836;52.754;6.866;2023-04-07T20:07:47;8.20;78.50
53926;DHT22;39836;52.754;6.866;2023-04-07T20:10:12;8.20;78.40
53926;DHT22;39836;52.754;6.866;2023-04-07T20:12:38;8.20;78.20
53926;DHT22;39836;52.754;6.866;2023-04-07T20:15:04;8.20;77.80
53926;DHT22;39836;52.754;6.866;2023-04-07T20:17:31;8.20;77.40
53926;DHT22;39836;52.754;6.866;2023-04-07T20:19:57;8.20;76.80
53926;DHT22;39836;52.754;6.866;2023-04-07T20:22:23;8.20;76.10
53926;DHT22;39836;52.754;6.866;2023-04-07T20:24:48;8.20;75.60
53926;DHT22;39836;52.754;6.866;2023-04-07T20:27:14;8.20;75.10
53926;DHT22;39836;52.754;6.866;2023-04-07T20:29:40;8.20;74.90
53926;DHT22;39836;52.754;6.866;2023-04-07T20:32:06;8.20;74.70
53926;DHT22;39836;52.754;6.866;2023-04-07T20:34:31;8.10;74.50
53926;DHT22;39836;52.754;6.866;2023-04-07T20:36:57;8.00;74.60
53926;DHT22;39836;52.754;6.866;2023-04-07T20:39:23;8.00;74.50
53926;DHT22;39836;52.754;6.866;2023-04-07T20:41:48;8.00;74.30
53926;DHT22;39836;52.754;6.866;2023-04-07T20:44:15;7.90;73.80
53926;DHT22;39836;52.754;6.866;2023-04-07T20:46:43;8.00;73.40
53926;DHT22;39836;52.754;6.866;2023-04-07T20:49:08;7.90;73.20
53926;DHT22;39836;52.754;6.866;2023-04-07T20:51:35;7.90;73.10
53926;DHT22;39836;52.754;6.866;2023-04-07T20:54:01;7.90;72.80
53926;DHT22;39836;52.754;6.866;2023-04-07T20:56:27;7.90;72.80
53926;DHT22;39836;52.754;6.866;2023-04-07T20:58:54;7.80;72.70
53926;DHT22;39836;52.754;6.866;2023-04-07T21:01:19;7.80;72.80
53926;DHT22;39836;52.754;6.866;2023-04-07T21:03:45;7.70;72.70
53926;DHT22;39836;52.754;6.866;2023-04-07T21:06:11;7.70;72.60
53926;DHT22;39836;52.754;6.866;2023-04-07T21:08:37;7.70;72.50
53926;DHT22;39836;52.754;6.866;2023-04-07T21:11:02;7.70;72.60
53926;DHT22;39836;52.754;6.866;2023-04-07T21:13:28;7.60;72.60
53926;DHT22;39836;52.754;6.866;2023-04-07T21:15:54;7.60;72.60
53926;DHT22;39836;52.754;6.866;2023-04-07T21:18:21;7.50;72.50
53926;DHT22;39836;52.754;6.866;2023-04-07T21:20:47;7.50;72.60
53926;DHT22;39836;52.754;6.866;2023-04-07T21:23:13;7.40;72.60
53926;DHT22;39836;52.754;6.866;2023-04-07T21:25:39;7.40;72.80
53926;DHT22;39836;52.754;6.866;2023-04-07T21:28:05;7.40;72.70
53926;DHT22;39836;52.754;6.866;2023-04-07T21:30:30;7.40;72.70
53926;DHT22;39836;52.754;6.866;2023-04-07T21:32:57;7.40;72.50
53926;DHT22;39836;52.754;6.866;2023-04-07T21:35:25;7.40;72.60
53926;DHT22;39836;52.754;6.866;2023-04-07T21:37:52;7.30;72.60
53926;DHT22;39836;52.754;6.866;2023-04-07T21:40:18;7.30;72.70
53926;DHT22;39836;52.754;6.866;2023-04-07T21:42:43;7.30;72.50
53926;DHT22;39836;52.754;6.866;2023-04-07T21:45:09;7.30;72.60
53926;DHT22;39836;52.754;6.866;2023-04-07T21:47:35;7.30;72.70
53926;DHT22;39836;52.754;6.866;2023-04-07T21:50:01;7.20;72.70
53926;DHT22;39836;52.754;6.866;2023-04-07T21:52:27;7.20;72.70
53926;DHT22;39836;52.754;6.866;2023-04-07T21:54:53;7.20;72.80
53926;DHT22;39836;52.754;6.866;2023-04-07T21:57:18;7.10;72.80
53926;DHT22;39836;52.754;6.866;2023-04-07T21:59:44;7.10;72.80
53926;DHT22;39836;52.754;6.866;2023-04-07T22:02:09;7.10;72.80
53926;DHT22;39836;52.754;6.866;2023-04-07T22:04:37;7.10;72.80
53926;DHT22;39836;52.754;6.866;2023-04-07T22:07:02;7.10;72.90
53926;DHT22;39836;52.754;6.866;2023-04-07T22:09:28;7.00;73.00
53926;DHT22;39836;52.754;6.866;2023-04-07T22:11:54;7.00;73.00
53926;DHT22;39836;52.754;6.866;2023-04-07T22:14:20;6.90;73.10
53926;DHT22;39836;52.754;6.866;2023-04-07T22:16:52;6.90;73.10
53926;DHT22;39836;52.754;6.866;2023-04-07T22:19:18;6.90;73.10
53926;DHT22;39836;52.754;6.866;2023-04-07T22:21:44;6.80;73.20
53926;DHT22;39836;52.754;6.866;2023-04-07T22:24:09;6.80;73.20
53926;DHT22;39836;52.754;6.866;2023-04-07T22:26:36;6.80;73.30
53926;DHT22;39836;52.754;6.866;2023-04-07T22:29:01;6.70;73.40
53926;DHT22;39836;52.754;6.866;2023-04-07T22:31:27;6.70;73.50
53926;DHT22;39836;52.754;6.866;2023-04-07T22:33:53;6.60;73.50
53926;DHT22;39836;52.754;6.866;2023-04-07T22:36:18;6.60;73.50
53926;DHT22;39836;52.754;6.866;2023-04-07T22:38:44;6.60;73.60
53926;DHT22;39836;52.754;6.866;2023-04-07T22:41:10;6.50;73.60
53926;DHT22;39836;52.754;6.866;2023-04-07T22:43:35;6.50;73.70
53926;DHT22;39836;52.754;6.866;2023-04-07T22:46:01;6.40;73.70
53926;DHT22;39836;52.754;6.866;2023-04-07T22:48:26;6.40;73.80
53926;DHT22;39836;52.754;6.866;2023-04-07T22:50:53;6.40;73.80
53926;DHT22;39836;52.754;6.866;2023-04-07T22:53:19;6.40;73.90
53926;DHT22;39836;52.754;6.866;2023-04-07T22:55:45;6.40;73.90
53926;DHT22;39836;52.754;6.866;2023-04-07T22:58:11;6.40;74.00
53926;DHT22;39836;52.754;6.866;2023-04-07T23:00:37;6.30;74.10
53926;DHT22;39836;52.754;6.866;2023-04-07T23:03:03;6.30;74.20
53926;DHT22;39836;52.754;6.866;2023-04-07T23:05:29;6.20;74.20
53926;DHT22;39836;52.754;6.866;2023-04-07T23:07:54;6.20;74.30
53926;DHT22;39836;52.754;6.866;2023-04-07T23:10:20;6.30;74.40
53926;DHT22;39836;52.754;6.866;2023-04-07T23:12:46;6.20;74.40
53926;DHT22;39836;52.754;6.866;2023-04-07T23:15:12;6.20;74.50
53926;DHT22;39836;52.754;6.866;2023-04-07T23:17:37;6.10;74.50
53926;DHT22;39836;52.754;6.866;2023-04-07T23:20:04;6.10;74.60
53926;DHT22;39836;52.754;6.866;2023-04-07T23:22:30;6.10;74.70
53926;DHT22;39836;52.754;6.866;2023-04-07T23:24:56;6.00;74.80
53926;DHT22;39836;52.754;6.866;2023-04-07T23:27:21;6.00;74.80
53926;DHT22;39836;52.754;6.866;2023-04-07T23:29:47;6.00;74.90
53926;DHT22;39836;52.754;6.866;2023-04-07T23:32:13;6.00;75.00
53926;DHT22;39836;52.754;6.866;2023-04-07T23:34:39;5.90;75.10
53926;DHT22;39836;52.754;6.866;2023-04-07T23:37:05;5.90;75.20